Time;durP1;ratioP1;P1;durP2;ratioP2;P2;SDS_P1;SDS_P2;PMS_P1;PMS_P2;Temp;Humidity;BMP_temperature;BMP_pressure;BME280_temperature;BME280_humidity;BME280_pressure;Samples;Min_cycle;Max_cycle;Signal;HPM_P1;HPM_P2
2022/01/18 00:26:42;;;;;;;27.88;22.02;;;-1.20;99.50;-1.30;95783.00;;;;5083618;27;81711;-59
2022/01/18 00:29:12;;;;;;;25.15;20.52;;;-0.90;99.50;-1.30;95779.00;;;;5058785;27;82527;-58
2022/01/18 00:34:28;;;;;;;27.20;23.15;;;-0.90;99.40;-1.40;95790.00;;;;5059291;27;83118;-59
2022/01/18 00:37:00;;;;;;;28.55;23.65;;;-0.90;99.40;-1.40;95796.00;;;;5057773;27;82514;-59
2022/01/18 00:39:27;;;;;;;28.85;25.05;;;-0.90;99.30;-1.40;95802.00;;;;5059869;27;83375;-59
2022/01/18 00:41:53;;;;;;;31.13;25.52;;;-1.00;99.30;-1.40;95801.00;;;;5058321;27;83125;-59
2022/01/18 00:44:20;;;;;;;29.42;26.20;;;-1.00;99.30;-1.50;95806.00;;;;5058181;27;83510;-59
2022/01/18 00:46:46;;;;;;;31.15;27.33;;;-1.00;99.40;-1.40;95822.00;;;;5058121;27;82713;-57
2022/01/18 00:49:13;;;;;;;29.65;26.55;;;-1.00;99.60;-1.50;95827.00;;;;5058593;27;83436;-56
2022/01/18 00:51:41;;;;;;;29.10;25.75;;;-1.00;99.60;-1.50;95831.00;;;;5058897;27;83579;-59
2022/01/18 00:54:13;;;;;;;33.05;29.50;;;-1.10;99.60;-1.50;95836.00;;;;5058862;27;82784;-57
2022/01/18 00:56:42;;;;;;;34.88;31.33;;;-1.10;99.60;-1.50;95838.00;;;;5058503;27;82728;-58
2022/01/18 00:59:08;;;;;;;34.58;31.08;;;-1.10;99.70;-1.50;95846.00;;;;5059048;27;83604;-59
2022/01/18 01:01:36;;;;;;;35.60;32.00;;;-1.10;99.80;-1.50;95850.00;;;;5059480;27;82908;-58
2022/01/18 01:04:03;;;;;;;31.40;28.13;;;-1.10;99.90;-1.50;95861.00;;;;5058100;27;83010;-55
2022/01/18 01:06:31;;;;;;;33.75;30.33;;;-1.10;99.90;-1.50;95859.00;;;;5058677;27;82819;-56
2022/01/18 01:08:58;;;;;;;32.67;29.58;;;-1.00;99.90;-1.50;95861.00;;;;5058525;27;83281;-53
2022/01/18 01:11:25;;;;;;;33.08;29.55;;;-1.00;99.90;-1.50;95866.00;;;;5058450;27;84855;-58
2022/01/18 01:13:56;;;;;;;33.05;29.75;;;-1.10;99.90;-1.50;95866.00;;;;5057906;27;83692;-56
2022/01/18 01:19:23;;;;;;;34.60;31.20;;;-1.10;99.90;-1.50;95884.00;;;;5058499;27;82749;-58
2022/01/18 01:44:01;;;;;;;37.42;33.45;;;-1.10;99.60;-1.50;95919.00;;;;5045266;27;82744;-54
2022/01/18 01:46:29;;;;;;;33.95;30.65;;;-1.10;99.70;-1.50;95925.00;;;;5033765;28;83838;-58
2022/01/18 01:48:57;;;;;;;34.15;30.75;;;-1.00;99.80;-1.50;95927.00;;;;5041903;28;82700;-58
2022/01/18 01:51:30;;;;;;;34.95;31.55;;;-1.10;99.70;-1.50;95926.00;;;;5043310;28;84947;-58
2022/01/18 01:54:04;;;;;;;36.03;32.33;;;-1.00;99.70;-1.50;95931.00;;;;5045190;27;83027;-57
2022/01/18 01:56:32;;;;;;;35.67;32.17;;;-1.10;99.70;-1.50;95942.00;;;;5044750;27;82867;-59
2022/01/18 01:58:59;;;;;;;33.65;30.13;;;-1.10;99.80;-1.50;95946.00;;;;5044366;28;82682;-55
2022/01/18 02:01:26;;;;;;;31.40;28.17;;;-1.10;99.70;-1.50;95950.00;;;;5044345;27;83382;-58
2022/01/18 02:03:52;;;;;;;31.42;28.27;;;-1.10;99.60;-1.50;95956.00;;;;5060064;27;83776;-57
2022/01/18 02:06:19;;;;;;;29.63;26.63;;;-1.10;99.50;-1.50;95966.00;;;;5043805;27;83705;-58
2022/01/18 02:08:45;;;;;;;24.70;22.10;;;-1.10;99.50;-1.60;95985.00;;;;5044669;27;83297;-58
2022/01/18 02:11:12;;;;;;;23.88;19.02;;;-1.10;99.20;-1.60;95976.00;;;;5044540;27;83191;-57
2022/01/18 02:13:39;;;;;;;24.85;22.27;;;-1.10;99.20;-1.60;95991.00;;;;5043499;28;83091;-58
2022/01/18 02:24:07;;;;;;;23.05;20.65;;;-1.20;99.40;-1.70;96007.00;;;;5044405;27;83630;-58
2022/01/18 02:26:33;;;;;;;20.95;18.90;;;-1.30;99.20;-1.80;96009.00;;;;5043498;27;83011;-58
2022/01/18 02:29:01;;;;;;;21.25;19.15;;;-1.30;99.10;-1.70;96027.00;;;;5042871;28;82752;-58
2022/01/18 02:31:28;;;;;;;21.80;19.63;;;-1.30;99.10;-1.80;96039.00;;;;5044048;27;83289;-57
2022/01/18 02:33:54;;;;;;;20.73;18.73;;;-1.40;99.10;-1.80;96037.00;;;;5042976;28;83347;-58
2022/01/18 02:36:20;;;;;;;19.70;17.83;;;-1.40;99.10;-1.80;96044.00;;;;5043780;27;83004;-57
2022/01/18 02:38:47;;;;;;;19.80;17.85;;;-1.40;99.10;-1.90;96042.00;;;;5043136;27;82683;-57
2022/01/18 02:41:28;;;;;;;21.05;18.95;;;-1.40;99.10;-1.90;96046.00;;;;5043994;27;83754;-56
2022/01/18 02:44:08;;;;;;;21.00;18.90;;;-1.40;99.10;-1.90;96065.00;;;;5043377;27;82998;-57
2022/01/18 02:46:35;;;;;;;16.60;14.90;;;-1.40;99.10;-2.00;96060.00;;;;5042945;28;82714;-57
2022/01/18 02:49:03;;;;;;;13.93;12.52;;;-1.50;98.60;-2.00;96091.00;;;;5043313;27;82812;-57
2022/01/18 02:51:29;;;;;;;13.90;12.40;;;-1.50;98.30;-2.00;96079.00;;;;5043285;27;83248;-58
2022/01/18 02:54:04;;;;;;;13.77;12.38;;;-1.60;98.10;-2.10;96091.00;;;;5043898;27;83088;-58
2022/01/18 02:56:41;;;;;;;13.15;11.85;;;-1.60;97.90;-2.10;96092.00;;;;5044122;28;82649;-57
2022/01/18 02:59:19;;;;;;;14.52;13.13;;;-1.60;98.50;-2.10;96098.00;;;;5032504;28;83079;-58
2022/01/18 03:04:46;;;;;;;13.95;12.18;;;-1.70;98.50;-2.20;96117.00;;;;5040268;28;82516;-58
2022/01/18 03:07:12;;;;;;;11.57;10.48;;;-1.70;98.60;-2.20;96120.00;;;;5041274;28;83825;-57
2022/01/18 03:09:39;;;;;;;12.73;11.43;;;-1.80;98.40;-2.30;96128.00;;;;5042348;28;82668;-56
2022/01/18 03:12:07;;;;;;;12.13;10.82;;;-1.90;99.00;-2.40;96131.00;;;;5042362;28;83509;-57
2022/01/18 03:14:34;;;;;;;11.85;10.75;;;-1.90;98.70;-2.40;96141.00;;;;5042892;27;82801;-58
2022/01/18 03:17:00;;;;;;;12.20;11.00;;;-1.90;98.80;-2.40;96146.00;;;;5043040;27;83131;-58
2022/01/18 03:19:26;;;;;;;12.50;11.20;;;-1.90;98.90;-2.40;96148.00;;;;5042430;28;82735;-57
2022/01/18 03:21:56;;;;;;;10.57;9.48;;;-2.00;98.50;-2.50;96149.00;;;;5043161;27;83362;-58
2022/01/18 03:29:37;;;;;;;12.73;11.45;;;-2.00;98.80;-2.50;96192.00;;;;5030100;28;81823;-58
2022/01/18 03:32:04;;;;;;;10.75;9.60;;;-2.00;98.70;-2.50;96170.00;;;;5042687;27;83719;-56
2022/01/18 03:34:30;;;;;;;11.65;10.45;;;-2.00;98.70;-2.50;96182.00;;;;5043920;27;83082;-57
2022/01/18 03:36:56;;;;;;;10.90;9.80;;;-2.00;98.80;-2.50;96207.00;;;;5042544;27;82516;-57
2022/01/18 03:39:22;;;;;;;9.27;8.27;;;-2.00;98.90;-2.50;96205.00;;;;5044161;27;81693;-58
2022/01/18 03:41:54;;;;;;;10.40;8.77;;;-2.00;98.50;-2.50;96207.00;;;;5043520;28;81661;-56
2022/01/18 03:44:22;;;;;;;8.35;7.43;;;-2.00;98.40;-2.50;96209.00;;;;5040449;28;81702;-58
2022/01/18 03:46:53;;;;;;;7.85;7.05;;;-2.00;98.40;-2.50;96218.00;;;;5043777;27;82152;-57
2022/01/18 03:49:23;;;;;;;8.65;5.90;;;-2.00;98.10;-2.50;96219.00;;;;5041651;28;82219;-58
2022/01/18 03:51:49;;;;;;;6.63;5.82;;;-2.00;98.10;-2.50;96211.00;;;;5043106;28;81516;-57
2022/01/18 03:54:21;;;;;;;8.00;6.25;;;-2.00;97.70;-2.50;96220.00;;;;5043266;28;81743;-56
2022/01/18 03:56:47;;;;;;;6.80;5.80;;;-2.00;97.60;-2.50;96240.00;;;;5042899;28;82687;-58
2022/01/18 03:59:13;;;;;;;7.22;5.10;;;-2.00;97.70;-2.50;96246.00;;;;5042358;28;81948;-57
2022/01/18 04:01:39;;;;;;;6.13;5.47;;;-2.00;97.60;-2.50;96256.00;;;;5060048;27;81877;-56
2022/01/18 04:04:05;;;;;;;6.47;5.20;;;-2.00;97.60;-2.50;96266.00;;;;5043643;27;81604;-57
2022/01/18 04:06:31;;;;;;;6.20;5.60;;;-2.00;97.60;-2.50;96260.00;;;;5043489;27;82577;-58
2022/01/18 04:08:58;;;;;;;4.93;3.60;;;-2.00;97.70;-2.50;96252.00;;;;5043936;27;81813;-57
2022/01/18 04:11:24;;;;;;;6.35;4.63;;;-2.00;97.10;-2.50;96295.00;;;;5043727;27;81544;-57
2022/01/18 04:13:50;;;;;;;5.25;4.70;;;-2.00;97.30;-2.50;96310.00;;;;5043231;27;81632;-57
2022/01/18 04:16:17;;;;;;;5.95;4.70;;;-2.00;97.30;-2.50;96273.00;;;;5043315;27;81603;-57
2022/01/18 04:19:10;;;;;;;5.07;4.05;;;-2.00;97.40;-2.50;96302.00;;;;5043435;27;82048;-57
2022/01/18 04:25:55;;;;;;;5.22;4.40;;;-2.00;97.20;-2.50;96309.00;;;;5043040;27;81778;-55
2022/01/18 04:27:19;;;;;;;5.72;4.60;;;-2.00;97.30;-2.50;96317.00;;;;5025548;27;82153;-57
2022/01/18 04:29:45;;;;;;;6.55;4.53;;;-2.00;97.20;-2.50;96337.00;;;;5043047;27;82180;-57
2022/01/18 04:32:11;;;;;;;5.53;4.38;;;-2.00;97.20;-2.50;96331.00;;;;5043345;27;81730;-57
2022/01/18 04:34:40;;;;;;;5.28;3.95;;;-2.00;97.20;-2.50;96331.00;;;;5043110;27;81999;-57
2022/01/18 04:37:06;;;;;;;5.05;4.50;;;-2.00;97.20;-2.50;96351.00;;;;5042807;27;82354;-55
2022/01/18 04:39:41;;;;;;;4.10;3.50;;;-2.00;97.10;-2.50;96331.00;;;;5042640;28;82302;-56
2022/01/18 04:42:14;;;;;;;4.50;3.33;;;-2.10;97.20;-2.50;96352.00;;;;5042582;28;81877;-55
2022/01/18 04:50:10;;;;;;;4.35;3.95;;;-2.10;96.90;-2.50;96387.00;;;;5040382;28;83743;-57
2022/01/18 04:52:36;;;;;;;4.38;3.63;;;-2.10;97.30;-2.60;96403.00;;;;5041892;27;84267;-58
2022/01/18 04:55:03;;;;;;;4.40;3.33;;;-2.10;97.20;-2.60;96406.00;;;;5042163;27;82545;-57
2022/01/18 05:00:15;;;;;;;4.25;3.05;;;-2.20;96.90;-2.70;96422.00;;;;5042062;27;82672;-57
2022/01/18 05:02:41;;;;;;;3.28;2.92;;;-2.20;96.70;-2.70;96437.00;;;;5044223;28;83134;-58
2022/01/18 05:05:10;;;;;;;3.72;3.10;;;-2.30;96.70;-2.80;96413.00;;;;5045300;28;82492;-56
2022/01/18 05:07:38;;;;;;;3.92;3.05;;;-2.30;96.50;-2.80;96439.00;;;;5045533;27;82278;-55
2022/01/18 05:10:04;;;;;;;3.72;3.10;;;-2.30;96.50;-2.90;96444.00;;;;5045361;27;82659;-56
2022/01/18 05:12:46;;;;;;;4.18;3.20;;;-2.30;96.50;-2.90;96425.00;;;;5045518;27;82005;-57
2022/01/18 05:21:06;;;;;;;4.78;3.63;;;-2.40;96.60;-3.00;96467.00;;;;5045045;27;82642;-57
2022/01/18 05:23:18;;;;;;;3.15;2.85;;;-2.50;96.60;-3.10;96478.00;;;;5046218;27;82446;-57
2022/01/18 05:25:46;;;;;;;4.55;3.80;;;-2.50;95.90;-3.10;96475.00;;;;5044742;27;82662;-57
2022/01/18 05:28:13;;;;;;;5.72;3.78;;;-2.60;95.90;-3.10;96503.00;;;;5045305;27;82362;-56
2022/01/18 05:30:40;;;;;;;5.07;4.28;;;-2.60;95.90;-3.10;96512.00;;;;5043341;28;83783;-57
2022/01/18 05:33:07;;;;;;;7.30;5.10;;;-2.60;96.00;-3.10;96497.00;;;;5045331;27;82854;-57
2022/01/18 05:35:35;;;;;;;5.50;4.63;;;-2.60;96.40;-3.20;96493.00;;;;5060600;27;82490;-56
2022/01/18 05:38:01;;;;;;;7.10;5.03;;;-2.60;96.40;-3.10;96511.00;;;;5044964;28;82411;-54
2022/01/18 05:40:28;;;;;;;12.93;4.82;;;-2.60;96.60;-3.20;96525.00;;;;5060795;27;83640;-57
2022/01/18 05:42:54;;;;;;;4.90;4.38;;;-2.60;96.50;-3.30;96551.00;;;;5044736;27;83785;-55
2022/01/18 05:45:20;;;;;;;5.93;4.80;;;-2.80;96.20;-3.30;96550.00;;;;5044906;27;82399;-56
2022/01/18 05:47:46;;;;;;;7.05;5.15;;;-2.80;96.60;-3.40;96548.00;;;;5044060;27;82316;-56
2022/01/18 05:50:14;;;;;;;5.72;4.95;;;-2.90;96.10;-3.50;96562.00;;;;5043107;28;85532;-57
2022/01/18 05:52:41;;;;;;;6.05;5.18;;;-3.00;96.60;-3.50;96551.00;;;;5043218;28;82260;-57
2022/01/18 05:55:10;;;;;;;7.18;5.85;;;-3.00;96.90;-3.50;96555.00;;;;5045344;28;82507;-60
2022/01/18 05:57:36;;;;;;;7.68;5.70;;;-3.00;96.90;-3.50;96575.00;;;;5045085;27;82017;-54
2022/01/18 06:00:11;;;;;;;7.22;5.30;;;-3.00;97.00;-3.60;96581.00;;;;5044245;28;82587;-56
2022/01/18 06:07:52;;;;;;;5.07;4.57;;;-3.10;96.60;-3.70;96601.00;;;;5044806;28;82426;-59
2022/01/18 06:10:19;;;;;;;5.95;4.80;;;-3.20;96.40;-3.70;96614.00;;;;5045373;28;82556;-53
2022/01/18 06:12:45;;;;;;;9.80;4.50;;;-3.20;96.80;-3.80;96633.00;;;;5044656;27;82591;-57
2022/01/18 06:15:11;;;;;;;5.75;4.43;;;-3.20;96.40;-3.80;96606.00;;;;5044480;27;82382;-56
2022/01/18 06:17:38;;;;;;;5.25;4.40;;;-3.30;96.70;-3.80;96610.00;;;;5044441;27;82455;-56
2022/01/18 06:20:06;;;;;;;5.97;4.40;;;-3.30;96.80;-3.80;96616.00;;;;5044402;27;82759;-56
2022/01/18 06:22:33;;;;;;;5.82;4.65;;;-3.30;96.50;-3.90;96624.00;;;;5044427;28;81610;-58
2022/01/18 06:24:59;;;;;;;6.78;4.90;;;-3.30;96.80;-3.90;96609.00;;;;5043350;27;81910;-56
2022/01/18 06:27:25;;;;;;;5.57;4.60;;;-3.30;96.70;-3.90;96635.00;;;;5043828;27;82307;-57
2022/01/18 06:29:52;;;;;;;4.90;4.38;;;-3.40;96.60;-3.90;96630.00;;;;5043906;27;82933;-58
2022/01/18 06:32:18;;;;;;;4.85;4.35;;;-3.40;96.40;-3.90;96633.00;;;;5043225;27;83483;-57
2022/01/18 06:34:45;;;;;;;6.93;4.28;;;-3.40;96.90;-4.00;96659.00;;;;5043500;27;82708;-57
2022/01/18 06:37:11;;;;;;;5.03;4.35;;;-3.40;96.60;-4.00;96664.00;;;;5042984;28;83309;-56
2022/01/18 06:39:37;;;;;;;6.57;3.35;;;-3.40;96.60;-4.10;96698.00;;;;5044853;27;82672;-54
2022/01/18 06:42:04;;;;;;;6.75;4.60;;;-3.50;96.20;-4.10;96657.00;;;;5044339;28;82382;-57
2022/01/18 06:44:30;;;;;;;6.13;4.55;;;-3.50;96.60;-4.10;96701.00;;;;5043794;28;81873;-57
2022/01/18 06:46:57;;;;;;;5.00;4.10;;;-3.50;96.50;-4.10;96694.00;;;;5044533;27;82086;-55
2022/01/18 06:49:23;;;;;;;5.60;4.07;;;-3.50;96.70;-4.10;96740.00;;;;5042336;28;83722;-57
2022/01/18 06:51:49;;;;;;;5.55;4.18;;;-3.60;96.60;-4.10;96695.00;;;;5043585;27;82266;-57
2022/01/18 06:54:16;;;;;;;4.40;3.40;;;-3.60;96.50;-4.10;96715.00;;;;5043137;27;83941;-55
2022/01/18 06:56:46;;;;;;;5.22;3.90;;;-3.60;96.10;-4.10;96695.00;;;;5043847;27;82200;-54
2022/01/18 06:59:13;;;;;;;4.45;3.63;;;-3.60;96.30;-4.10;96703.00;;;;5043865;27;81886;-56
2022/01/18 07:01:41;;;;;;;5.40;4.05;;;-3.60;96.90;-4.20;96760.00;;;;5043983;28;82409;-55
2022/01/18 07:04:07;;;;;;;4.47;3.45;;;-3.60;96.60;-4.20;96707.00;;;;5043938;28;82398;-57
2022/01/18 07:06:34;;;;;;;5.22;3.25;;;-3.60;96.40;-4.20;96708.00;;;;5043125;27;83869;-57
2022/01/18 07:09:02;;;;;;;4.18;3.00;;;-3.60;96.30;-4.20;96710.00;;;;5043626;27;82807;-54
2022/01/18 07:11:28;;;;;;;4.07;3.30;;;-3.60;95.80;-4.20;96739.00;;;;5044329;27;83449;-56
2022/01/18 07:13:54;;;;;;;4.60;3.63;;;-3.60;95.90;-4.20;96752.00;;;;5043555;27;81937;-57
2022/01/18 07:16:20;;;;;;;4.85;3.45;;;-3.60;96.20;-4.20;96766.00;;;;5041766;27;82869;-55
2022/01/18 07:18:46;;;;;;;5.22;3.70;;;-3.60;96.20;-4.20;96775.00;;;;5041966;27;84609;-56
2022/01/18 07:21:13;;;;;;;5.43;3.67;;;-3.60;96.00;-4.10;96792.00;;;;5043391;27;83454;-56
2022/01/18 07:23:40;;;;;;;4.65;3.53;;;-3.60;96.10;-4.20;96796.00;;;;5043167;28;82286;-56
2022/01/18 07:26:06;;;;;;;4.45;3.58;;;-3.60;95.90;-4.10;96780.00;;;;5043407;27;82304;-57
2022/01/18 07:28:32;;;;;;;5.82;3.33;;;-3.60;96.00;-4.10;96776.00;;;;5043406;27;82521;-55
2022/01/18 07:30:58;;;;;;;6.28;3.58;;;-3.60;96.00;-4.20;96803.00;;;;5043070;27;82292;-57
2022/01/18 07:33:24;;;;;;;5.00;3.75;;;-3.60;95.70;-4.20;96796.00;;;;5043021;28;82095;-58
2022/01/18 07:35:50;;;;;;;5.57;3.65;;;-3.60;95.60;-4.20;96792.00;;;;5043643;27;82526;-53
2022/01/18 07:38:18;;;;;;;11.55;3.67;;;-3.60;95.80;-4.20;96794.00;;;;5043596;27;82047;-57
2022/01/18 07:40:49;;;;;;;6.40;3.78;;;-3.60;95.60;-4.30;96815.00;;;;5043146;28;82412;-58
2022/01/18 07:43:18;;;;;;;4.60;3.70;;;-3.70;95.50;-4.20;96828.00;;;;5042462;27;83063;-58
2022/01/18 07:45:46;;;;;;;6.25;3.60;;;-3.70;95.90;-4.30;96825.00;;;;5042273;28;83553;-56
2022/01/18 07:48:13;;;;;;;4.32;3.50;;;-3.70;95.50;-4.30;96860.00;;;;5042293;27;82941;-59
2022/01/18 07:50:41;;;;;;;4.43;2.60;;;-3.80;95.50;-4.50;96868.00;;;;5041248;28;82206;-57
2022/01/18 07:53:08;;;;;;;3.75;3.28;;;-3.90;94.60;-4.40;96857.00;;;;5043106;28;81966;-56
2022/01/18 07:55:34;;;;;;;4.35;3.42;;;-3.80;95.30;-4.40;96882.00;;;;5042646;27;82246;-56
2022/01/18 07:58:00;;;;;;;5.82;4.00;;;-3.80;95.10;-4.30;96865.00;;;;5030558;28;82728;-57
2022/01/18 08:00:28;;;;;;;5.25;2.72;;;-3.80;95.50;-4.40;96871.00;;;;5042363;28;82271;-58
2022/01/18 08:02:54;;;;;;;5.13;3.05;;;-3.80;94.90;-4.40;96875.00;;;;5042592;27;81846;-56
2022/01/18 08:05:20;;;;;;;3.10;2.80;;;-3.80;95.10;-4.40;96916.00;;;;5042621;28;82162;-58
2022/01/18 08:07:47;;;;;;;4.15;3.28;;;-3.80;94.80;-4.40;96884.00;;;;5041950;28;83577;-57
2022/01/18 08:10:16;;;;;;;3.10;2.75;;;-3.80;94.60;-4.40;96893.00;;;;5058689;27;82429;-58
2022/01/18 08:12:43;;;;;;;4.53;3.30;;;-3.80;94.40;-4.50;96917.00;;;;5041124;28;82582;-57
2022/01/18 08:15:15;;;;;;;5.68;3.20;;;-3.90;94.40;-4.40;96947.00;;;;5042142;27;81967;-57
2022/01/18 08:17:45;;;;;;;4.35;3.20;;;-3.90;94.50;-4.50;96944.00;;;;5041428;28;82797;-57
2022/01/18 08:20:13;;;;;;;3.25;2.70;;;-3.90;94.40;-4.60;96901.00;;;;5041695;27;83805;-54
2022/01/18 08:22:42;;;;;;;4.20;2.90;;;-4.00;94.00;-4.70;96927.00;;;;5042553;27;81925;-57
2022/01/18 08:25:10;;;;;;;4.55;2.67;;;-4.00;93.80;-4.60;96941.00;;;;5041798;27;83098;-57
2022/01/18 08:27:36;;;;;;;3.53;2.75;;;-4.00;93.60;-4.50;96993.00;;;;5042122;27;82431;-56
2022/01/18 08:30:06;;;;;;;4.47;2.83;;;-4.00;92.90;-4.50;96947.00;;;;5042354;28;82398;-55
2022/01/18 08:32:32;;;;;;;3.90;2.85;;;-3.90;92.40;-4.50;96968.00;;;;5041814;27;83186;-54
2022/01/18 08:34:58;;;;;;;3.45;2.72;;;-3.90;92.20;-4.60;97001.00;;;;5042209;27;83435;-54
2022/01/18 08:37:24;;;;;;;4.00;3.10;;;-4.00;92.10;-4.50;96979.00;;;;5044459;27;82621;-60
2022/01/18 08:39:50;;;;;;;2.88;2.47;;;-3.90;92.10;-4.60;96973.00;;;;5046264;28;82374;-57
2022/01/18 08:42:16;;;;;;;3.53;2.92;;;-4.00;91.90;-4.60;96973.00;;;;5046090;27;82306;-55
2022/01/18 08:44:43;;;;;;;4.25;2.75;;;-4.00;91.80;-4.70;96979.00;;;;5044974;27;82110;-57
2022/01/18 08:47:17;;;;;;;4.75;2.80;;;-4.00;91.80;-4.70;96990.00;;;;5046090;27;82524;-55
2022/01/18 08:49:45;;;;;;;6.97;2.38;;;-4.00;91.70;-4.70;97020.00;;;;5044897;27;82324;-57
2022/01/18 08:52:13;;;;;;;4.28;2.08;;;-4.10;91.50;-4.70;96999.00;;;;5045448;27;81975;-59
2022/01/18 08:54:42;;;;;;;2.90;2.38;;;-4.10;91.50;-4.70;96989.00;;;;5045700;28;82393;-56
2022/01/18 08:57:12;;;;;;;3.75;2.42;;;-4.10;91.60;-4.70;97014.00;;;;5044821;27;84197;-57
2022/01/18 08:59:41;;;;;;;3.92;3.00;;;-4.10;91.90;-4.80;97024.00;;;;5045427;27;83264;-57
2022/01/18 09:02:09;;;;;;;3.50;2.80;;;-4.10;91.70;-4.70;96982.00;;;;5044566;27;82443;-54
2022/01/18 09:04:36;;;;;;;4.15;2.80;;;-4.10;91.70;-4.70;97020.00;;;;5040861;28;83058;-55
2022/01/18 09:07:08;;;;;;;5.68;2.78;;;-4.10;91.40;-4.70;97021.00;;;;5045388;27;82561;-56
2022/01/18 09:09:41;;;;;;;4.20;2.50;;;-4.10;91.70;-4.70;97037.00;;;;5045878;27;82384;-57
2022/01/18 09:12:14;;;;;;;3.40;2.65;;;-4.00;91.30;-4.70;97012.00;;;;5046055;28;81916;-56
2022/01/18 09:14:41;;;;;;;3.80;2.50;;;-4.00;91.20;-4.80;97063.00;;;;5040308;28;82825;-56
2022/01/18 09:17:07;;;;;;;4.47;2.92;;;-4.10;90.90;-4.70;97044.00;;;;5042230;27;82605;-56
2022/01/18 09:19:34;;;;;;;4.68;2.70;;;-4.10;91.10;-4.60;97052.00;;;;5044297;27;82273;-57
2022/01/18 09:22:03;;;;;;;3.22;2.80;;;-4.00;91.10;-4.70;97092.00;;;;5044434;28;83969;-58
2022/01/18 09:24:30;;;;;;;4.03;2.78;;;-4.10;90.80;-4.80;97077.00;;;;5043953;27;82351;-56
2022/01/18 09:26:56;;;;;;;3.63;2.67;;;-4.10;91.10;-4.90;97091.00;;;;5045121;28;82732;-58
2022/01/18 09:29:22;;;;;;;3.60;2.88;;;-4.20;91.10;-4.90;97069.00;;;;5044656;27;82812;-55
2022/01/18 09:31:49;;;;;;;4.47;3.05;;;-4.30;91.40;-4.90;97113.00;;;;5045356;27;82146;-56
2022/01/18 09:34:15;;;;;;;3.40;2.80;;;-4.20;91.50;-4.80;97091.00;;;;5044362;28;82808;-57
2022/01/18 09:36:42;;;;;;;3.45;2.60;;;-4.20;91.30;-4.80;97103.00;;;;5045522;28;82858;-58
2022/01/18 09:39:08;;;;;;;5.30;2.95;;;-4.20;91.10;-4.90;97120.00;;;;5045950;28;82443;-57
2022/01/18 09:41:39;;;;;;;4.18;2.35;;;-4.30;90.80;-5.00;97104.00;;;;5027555;28;82539;-59
2022/01/18 09:44:06;;;;;;;4.70;2.67;;;-4.40;90.80;-5.00;97118.00;;;;5044329;28;82269;-55
2022/01/18 09:46:33;;;;;;;3.97;2.35;;;-4.30;90.50;-5.10;97128.00;;;;5043856;27;85446;-56
2022/01/18 09:49:00;;;;;;;4.15;2.45;;;-4.40;90.40;-5.10;97144.00;;;;5044333;27;83213;-57
2022/01/18 09:51:28;;;;;;;4.30;2.63;;;-4.40;90.30;-5.10;97138.00;;;;5040411;28;82523;-57
2022/01/18 09:53:55;;;;;;;3.55;2.70;;;-4.40;90.60;-5.00;97163.00;;;;5045563;28;82242;-58
2022/01/18 09:56:22;;;;;;;4.68;3.25;;;-4.40;91.30;-5.10;97162.00;;;;5045040;27;82627;-57
2022/01/18 09:58:48;;;;;;;5.40;3.05;;;-4.40;91.00;-5.10;97159.00;;;;5044689;28;82410;-57
2022/01/18 10:01:14;;;;;;;3.58;2.72;;;-4.50;91.20;-5.20;97162.00;;;;5044972;27;82400;-56
2022/01/18 10:03:44;;;;;;;3.75;2.95;;;-4.50;91.30;-5.20;97207.00;;;;5045341;27;82279;-56
2022/01/18 10:06:10;;;;;;;4.05;2.67;;;-4.50;91.20;-5.20;97199.00;;;;5044280;27;82691;-57
2022/01/18 10:08:41;;;;;;;2.90;2.60;;;-4.60;90.90;-5.30;97203.00;;;;5044134;28;82846;-55
2022/01/18 10:11:17;;;;;;;3.95;2.90;;;-4.60;91.00;-5.50;97210.00;;;;5044917;27;82826;-58
2022/01/18 10:13:47;;;;;;;5.97;2.47;;;-4.80;90.30;-5.60;97217.00;;;;5043924;28;82159;-56
2022/01/18 10:16:21;;;;;;;3.95;2.50;;;-4.90;90.40;-5.70;97210.00;;;;5045161;28;82611;-58
2022/01/18 10:19:01;;;;;;;3.33;2.58;;;-5.00;90.70;-5.80;97273.00;;;;5042424;27;82376;-56
2022/01/18 10:21:33;;;;;;;3.30;2.60;;;-5.00;90.50;-5.80;97202.00;;;;5044871;27;81919;-56
2022/01/18 10:24:22;;;;;;;3.83;2.72;;;-5.00;90.70;-5.80;97208.00;;;;5044670;27;82195;-59
2022/01/18 10:26:55;;;;;;;2.97;2.35;;;-5.10;90.90;-5.80;97240.00;;;;5043200;28;83630;-59
2022/01/18 10:29:32;;;;;;;5.75;2.42;;;-5.10;90.80;-5.80;97247.00;;;;5043512;28;83733;-56
2022/01/18 10:32:08;;;;;;;3.88;2.65;;;-5.10;90.80;-5.80;97238.00;;;;5039931;28;81834;-56
2022/01/18 10:35:03;;;;;;;4.50;2.90;;;-5.10;90.90;-5.80;97277.00;;;;5043760;28;82898;-59
2022/01/18 10:37:33;;;;;;;4.65;3.10;;;-5.10;90.70;-5.80;97259.00;;;;5042592;28;83597;-57
2022/01/18 10:40:18;;;;;;;5.03;3.10;;;-5.10;90.70;-5.70;97274.00;;;;5045474;27;83271;-57
2022/01/18 10:42:51;;;;;;;4.45;3.08;;;-5.00;90.80;-5.70;97299.00;;;;5043313;27;82256;-60
2022/01/18 10:45:33;;;;;;;4.18;3.20;;;-5.00;90.50;-5.70;97288.00;;;;5043516;27;82349;-60
2022/01/18 10:48:15;;;;;;;4.78;3.40;;;-5.00;90.30;-5.70;97279.00;;;;5042825;28;82709;-54
2022/01/18 10:50:45;;;;;;;4.50;3.17;;;-5.00;90.50;-5.80;97340.00;;;;5023374;28;82574;-57
2022/01/18 10:53:16;;;;;;;3.55;2.78;;;-5.00;90.00;-5.80;97311.00;;;;5041923;28;82081;-57
2022/01/18 10:55:44;;;;;;;4.05;2.78;;;-5.00;89.60;-5.80;97311.00;;;;5058460;27;82981;-54
2022/01/18 10:58:13;;;;;;;4.10;2.50;;;-5.00;88.80;-5.80;97283.00;;;;5042396;27;82831;-57
2022/01/18 11:00:39;;;;;;;3.95;2.85;;;-5.10;88.50;-5.80;97279.00;;;;5042098;27;82210;-58
2022/01/18 11:03:07;;;;;;;4.13;2.90;;;-5.00;88.70;-5.70;97301.00;;;;5041569;27;83747;-58
2022/01/18 11:05:37;;;;;;;3.95;2.55;;;-5.00;88.50;-5.70;97316.00;;;;5042141;28;82324;-57
2022/01/18 11:08:05;;;;;;;4.75;2.53;;;-5.00;87.10;-5.80;97305.00;;;;5041805;28;83009;-57
2022/01/18 11:10:45;;;;;;;3.42;2.85;;;-5.10;87.30;-5.80;97331.00;;;;5042302;28;82355;-59
2022/01/18 11:13:13;;;;;;;5.07;2.97;;;-5.00;87.50;-5.70;97335.00;;;;5031420;28;82259;-57
2022/01/18 11:15:45;;;;;;;4.75;3.10;;;-5.00;87.70;-5.70;97338.00;;;;5042320;28;82210;-56
2022/01/18 11:18:18;;;;;;;3.47;3.03;;;-5.00;87.50;-5.70;97337.00;;;;5042954;28;82720;-56
2022/01/18 11:20:48;;;;;;;5.00;3.15;;;-5.00;87.20;-5.80;97356.00;;;;5042360;28;82278;-56
2022/01/18 11:23:15;;;;;;;4.07;2.90;;;-5.10;86.90;-5.80;97386.00;;;;5042813;27;82145;-57
2022/01/18 11:25:42;;;;;;;4.43;3.42;;;-5.10;86.90;-5.80;97401.00;;;;5043110;27;82384;-54
2022/01/18 11:28:11;;;;;;;4.82;2.85;;;-5.00;86.70;-5.70;97374.00;;;;5041734;27;83587;-57
2022/01/18 11:30:42;;;;;;;4.20;2.90;;;-5.00;85.70;-5.70;97388.00;;;;5035105;28;83432;-56
2022/01/18 11:33:14;;;;;;;4.97;2.80;;;-5.00;85.70;-5.70;97399.00;;;;5043188;27;82153;-58
2022/01/18 11:35:45;;;;;;;4.35;3.22;;;-5.00;85.40;-5.80;97391.00;;;;5031960;28;82341;-60
2022/01/18 11:38:34;;;;;;;3.67;2.55;;;-5.10;84.60;-5.90;97382.00;;;;5040805;28;83238;-60
2022/01/18 11:41:05;;;;;;;3.70;2.80;;;-5.10;84.70;-5.80;97395.00;;;;5042913;28;82318;-57
2022/01/18 11:43:40;;;;;;;3.90;2.72;;;-5.10;85.00;-5.90;97421.00;;;;5043736;27;82280;-59
2022/01/18 11:46:37;;;;;;;4.70;2.65;;;-5.20;84.60;-5.90;97421.00;;;;5039447;28;81718;-53
2022/01/18 11:49:07;;;;;;;3.88;2.85;;;-5.20;84.80;-5.90;97415.00;;;;5042009;28;81999;-57
2022/01/18 11:52:03;;;;;;;4.45;2.83;;;-5.20;84.80;-5.90;97415.00;;;;5041840;28;82266;-57
2022/01/18 11:57:27;;;;;;;4.45;2.60;;;-5.10;85.10;-5.80;97465.00;;;;5043301;28;81853;-56
2022/01/18 12:00:11;;;;;;;4.00;2.80;;;-5.10;84.60;-6.00;97465.00;;;;5043074;27;82524;-55
2022/01/18 12:02:44;;;;;;;3.35;2.90;;;-5.20;84.60;-6.10;97482.00;;;;5034014;28;82602;-57
2022/01/18 12:05:16;;;;;;;3.85;2.85;;;-5.30;85.10;-6.00;97471.00;;;;5043070;28;82073;-57
2022/01/18 12:07:44;;;;;;;4.93;3.03;;;-5.30;85.50;-6.00;97473.00;;;;5042408;27;82371;-53
2022/01/18 12:10:34;;;;;;;4.45;3.28;;;-5.30;85.60;-6.10;97500.00;;;;5042956;27;83756;-60
2022/01/18 12:13:13;;;;;;;4.40;2.90;;;-5.30;86.00;-6.00;97515.00;;;;5030781;28;82403;-58
2022/01/18 12:15:49;;;;;;;3.67;3.05;;;-5.30;86.00;-6.00;97498.00;;;;5041924;28;82674;-60
2022/01/18 12:18:21;;;;;;;5.68;3.40;;;-5.30;86.60;-6.10;97512.00;;;;5043170;27;82891;-56
2022/01/18 12:20:54;;;;;;;5.15;3.13;;;-5.30;86.60;-6.10;97531.00;;;;5038628;28;83207;-58
2022/01/18 12:23:44;;;;;;;4.75;3.55;;;-5.30;87.20;-6.00;97514.00;;;;5043228;27;82141;-58
2022/01/18 12:26:46;;;;;;;4.57;3.17;;;-5.30;87.20;-6.10;97510.00;;;;5042279;27;82157;-58
2022/01/18 12:29:34;;;;;;;;;;;-5.40;87.70;-6.10;97536.00;;;;5042996;27;81941;-53
2022/01/18 12:34:44;;;;;;;6.00;3.25;;;-5.40;88.10;-6.10;97574.00;;;;5042400;27;82521;-60
2022/01/18 12:37:16;;;;;;;3.50;2.97;;;-5.30;86.80;-6.10;97536.00;;;;5038515;28;82496;-60
2022/01/18 12:39:57;;;;;;;5.20;3.20;;;-5.40;85.70;-6.10;97553.00;;;;5042840;28;82392;-59